Aviation Digital Data Service (ADDS)

Output produced by TAFs form (0919 UTC 24 April 2017)
found at http://www.aviationweather.gov/adds/tafs/
 
KPSF 240520Z 2406/2506 VRB04KT P6SM SCT200